Time;durP1;ratioP1;P1;durP2;ratioP2;P2;SDS_P1;SDS_P2;PMS_P1;PMS_P2;Temp;Humidity;BMP_temperature;BMP_pressure;BME280_temperature;BME280_humidity;BME280_pressure;Samples;Min_cycle;Max_cycle;Signal;HPM_P1;HPM_P2
2020/12/19 00:01:03;;;;;;;38.70;21.17;;;6.00;99.90;;;;;;5023968;28;20120;-79
2020/12/19 00:03:33;;;;;;;39.25;22.13;;;5.90;99.90;;;;;;5023409;28;20056;-78
2020/12/19 00:05:59;;;;;;;45.53;22.63;;;5.90;99.90;;;;;;5021932;28;20021;-79
2020/12/19 00:08:27;;;;;;;39.00;21.42;;;5.90;99.90;;;;;;5024626;28;20048;-78
2020/12/19 00:10:52;;;;;;;39.35;21.40;;;6.00;99.90;;;;;;5024527;28;20048;-79
2020/12/19 00:13:21;;;;;;;37.95;20.88;;;6.00;99.90;;;;;;5038142;28;20038;-78
2020/12/19 00:15:46;;;;;;;46.85;23.02;;;6.00;99.90;;;;;;5056298;28;20061;-79
2020/12/19 00:18:12;;;;;;;42.08;21.75;;;6.00;99.90;;;;;;5056506;28;20131;-79
2020/12/19 00:20:42;;;;;;;40.65;21.67;;;6.00;99.90;;;;;;5024501;28;20038;-79
2020/12/19 00:23:10;;;;;;;46.28;23.10;;;6.00;99.90;;;;;;4677327;28;9999928;-79
2020/12/19 00:25:36;;;;;;;46.22;22.35;;;6.00;99.90;;;;;;5054368;28;20030;-79
2020/12/19 00:28:06;;;;;;;33.63;20.00;;;6.00;99.90;;;;;;5019310;28;20109;-78
2020/12/19 00:30:34;;;;;;;35.92;20.58;;;6.00;99.90;;;;;;5022046;28;20104;-79
2020/12/19 00:33:02;;;;;;;38.38;21.30;;;6.00;99.90;;;;;;5021915;28;20033;-79
2020/12/19 00:35:30;;;;;;;34.47;19.98;;;6.00;99.90;;;;;;5021951;28;20114;-79
2020/12/19 00:37:56;;;;;;;37.78;20.42;;;6.00;99.90;;;;;;5023327;28;20088;-79
2020/12/19 00:40:22;;;;;;;40.38;21.80;;;6.00;99.90;;;;;;5021999;28;20887;-79
2020/12/19 00:42:49;;;;;;;69.47;26.05;;;6.00;99.90;;;;;;5021839;28;20041;-79
2020/12/19 00:45:17;;;;;;;36.45;20.80;;;6.00;99.90;;;;;;5057138;28;20608;-79
2020/12/19 00:47:43;;;;;;;38.53;22.52;;;5.90;99.90;;;;;;5057775;28;20021;-79
2020/12/19 00:50:13;;;;;;;38.38;19.70;;;5.90;99.90;;;;;;5025711;28;20104;-79
2020/12/19 00:52:43;;;;;;;37.58;21.00;;;5.90;99.90;;;;;;5039018;28;20032;-79
2020/12/19 00:55:09;;;;;;;39.15;20.50;;;5.90;99.90;;;;;;5024130;28;20100;-79
2020/12/19 00:57:34;;;;;;;40.25;20.45;;;5.90;99.90;;;;;;5024949;28;20104;-79
2020/12/19 01:00:02;;;;;;;38.22;20.52;;;5.90;99.90;;;;;;5023199;28;20025;-79
2020/12/19 01:02:28;;;;;;;40.97;22.10;;;6.00;99.90;;;;;;5025207;28;20541;-78
2020/12/19 01:04:53;;;;;;;33.67;19.50;;;5.90;99.90;;;;;;5024968;28;20037;-79
2020/12/19 01:07:19;;;;;;;36.22;20.10;;;6.00;99.90;;;;;;5025248;28;20037;-78
2020/12/19 01:09:47;;;;;;;34.88;20.52;;;6.00;99.90;;;;;;5026766;28;20604;-79
2020/12/19 01:12:15;;;;;;;38.05;20.50;;;6.00;99.90;;;;;;5023255;28;20025;-78
2020/12/19 01:14:41;;;;;;;34.85;19.95;;;6.00;99.90;;;;;;5024623;28;20059;-79
2020/12/19 01:17:07;;;;;;;37.17;19.60;;;6.00;99.90;;;;;;5024497;28;20029;-78
2020/12/19 01:19:37;;;;;;;35.22;19.55;;;6.00;99.90;;;;;;5023504;28;20522;-79
2020/12/19 01:22:03;;;;;;;30.98;18.70;;;6.00;99.90;;;;;;5024624;28;20037;-79
2020/12/19 01:24:31;;;;;;;31.30;18.63;;;6.00;99.90;;;;;;5022067;28;20037;-79
2020/12/19 01:26:56;;;;;;;35.33;20.60;;;6.00;99.90;;;;;;5023793;28;20112;-78
2020/12/19 01:29:26;;;;;;;31.38;19.00;;;6.00;99.90;;;;;;5022857;28;20112;-78
2020/12/19 01:31:55;;;;;;;31.15;18.10;;;6.00;99.90;;;;;;5024399;28;20022;-78
2020/12/19 01:34:20;;;;;;;34.03;19.10;;;6.00;99.90;;;;;;5037110;28;20057;-78
2020/12/19 01:36:48;;;;;;;40.25;20.92;;;5.90;99.90;;;;;;5025115;28;20060;-79
2020/12/19 01:39:16;;;;;;;32.45;18.42;;;5.90;99.90;;;;;;5023554;28;20771;-78
2020/12/19 01:41:46;;;;;;;30.17;17.27;;;5.90;99.90;;;;;;5023633;28;20116;-79
2020/12/19 01:44:12;;;;;;;31.42;18.45;;;5.90;99.90;;;;;;5023549;28;20040;-79
2020/12/19 01:46:57;;;;;;;30.60;18.80;;;5.90;99.90;;;;;;5055211;28;20034;-79
2020/12/19 01:49:27;;;;;;;27.90;17.30;;;5.90;99.90;;;;;;5056447;28;20744;-79
2020/12/19 01:52:00;;;;;;;27.67;16.88;;;5.90;99.90;;;;;;5021798;28;20432;-78
2020/12/19 01:54:26;;;;;;;34.92;18.92;;;5.90;99.90;;;;;;5037332;28;20707;-78
2020/12/19 01:56:53;;;;;;;31.17;19.15;;;5.90;99.90;;;;;;5028765;28;20100;-78
2020/12/19 01:59:22;;;;;;;27.50;18.08;;;5.90;99.90;;;;;;5021335;28;20479;-79
2020/12/19 02:01:50;;;;;;;27.67;17.65;;;5.90;99.90;;;;;;5023483;28;20037;-78
2020/12/19 02:04:18;;;;;;;26.77;16.23;;;5.90;99.90;;;;;;5024973;28;20041;-78
2020/12/19 02:06:51;;;;;;;30.58;17.95;;;5.80;99.90;;;;;;5038708;28;20025;-78
2020/12/19 02:09:21;;;;;;;33.95;19.65;;;5.80;99.90;;;;;;5023975;28;20040;-78
2020/12/19 02:11:47;;;;;;;30.30;17.67;;;5.80;99.90;;;;;;5056412;28;20116;-79
2020/12/19 02:14:17;;;;;;;30.48;18.70;;;5.80;99.90;;;;;;5057909;28;20120;-78
2020/12/19 02:17:01;;;;;;;28.45;16.98;;;5.80;99.90;;;;;;5054794;28;20378;-78
2020/12/19 02:19:30;;;;;;;27.90;16.48;;;5.80;99.90;;;;;;5025914;28;20358;-78
2020/12/19 02:21:58;;;;;;;34.10;17.83;;;5.70;99.90;;;;;;5059053;28;20037;-78
2020/12/19 02:24:26;;;;;;;32.42;18.85;;;5.70;99.90;;;;;;5025606;28;20034;-78
2020/12/19 02:26:54;;;;;;;30.52;18.00;;;5.70;99.90;;;;;;5026466;28;20083;-78
2020/12/19 02:29:19;;;;;;;29.80;16.85;;;5.70;99.90;;;;;;5042593;28;20482;-79
2020/12/19 02:31:48;;;;;;;36.15;18.23;;;5.70;99.90;;;;;;5021001;28;20095;-78
2020/12/19 02:34:13;;;;;;;34.90;18.77;;;5.70;99.90;;;;;;5022572;28;20044;-78
2020/12/19 02:36:41;;;;;;;31.15;16.85;;;5.70;99.90;;;;;;5027522;28;20030;-78
2020/12/19 02:39:10;;;;;;;26.55;16.30;;;5.70;99.90;;;;;;5018702;28;20048;-78
2020/12/19 02:41:42;;;;;;;27.58;16.67;;;5.60;99.90;;;;;;5033614;28;20758;-79
2020/12/19 02:44:12;;;;;;;28.92;15.63;;;5.70;99.90;;;;;;5049547;28;20038;-78
2020/12/19 02:46:40;;;;;;;29.85;15.55;;;5.70;99.90;;;;;;5048412;28;20174;-78
2020/12/19 02:49:11;;;;;;;27.70;16.70;;;5.60;99.90;;;;;;5031200;28;20030;-79
2020/12/19 02:51:39;;;;;;;26.38;16.60;;;5.60;99.90;;;;;;5032467;28;20040;-78
2020/12/19 02:54:05;;;;;;;25.17;14.73;;;5.60;99.90;;;;;;5017233;28;20029;-78
2020/12/19 02:56:30;;;;;;;29.92;16.45;;;5.60;99.90;;;;;;5003588;28;20382;-78
2020/12/19 02:58:56;;;;;;;32.50;16.98;;;5.60;99.90;;;;;;5015707;28;20751;-78
2020/12/19 03:01:34;;;;;;;28.75;16.08;;;5.60;99.90;;;;;;5034231;28;20033;-78
2020/12/19 03:03:59;;;;;;;28.63;16.27;;;5.60;99.90;;;;;;5015752;28;20050;-79
2020/12/19 03:06:25;;;;;;;27.52;16.25;;;5.50;99.90;;;;;;5028817;28;20450;-78
2020/12/19 03:08:51;;;;;;;24.25;15.50;;;5.50;99.90;;;;;;5048957;28;20026;-78
2020/12/19 03:11:17;;;;;;;33.25;17.10;;;5.60;99.90;;;;;;5021231;28;20502;-78
2020/12/19 03:13:45;;;;;;;25.02;15.27;;;5.60;99.90;;;;;;5024379;28;20111;-78
2020/12/19 03:16:10;;;;;;;24.92;15.18;;;5.60;99.90;;;;;;5024181;28;20070;-78
2020/12/19 03:18:38;;;;;;;26.50;16.42;;;5.60;99.90;;;;;;5050317;28;20053;-78
2020/12/19 03:21:04;;;;;;;26.08;16.08;;;5.60;99.90;;;;;;5027077;28;20451;-78
2020/12/19 03:23:32;;;;;;;29.80;17.02;;;5.60;99.90;;;;;;5023401;28;20063;-79
2020/12/19 03:26:00;;;;;;;27.90;16.45;;;5.60;99.90;;;;;;5013223;28;20091;-79
2020/12/19 03:28:28;;;;;;;44.78;19.23;;;5.60;99.90;;;;;;5014891;28;20026;-78
2020/12/19 03:30:53;;;;;;;28.40;16.85;;;5.60;99.90;;;;;;5014653;28;20108;-78
2020/12/19 03:33:21;;;;;;;30.88;18.05;;;5.60;99.90;;;;;;5016350;28;20041;-78
2020/12/19 03:35:54;;;;;;;26.05;16.27;;;5.60;99.90;;;;;;5016930;28;20068;-78
2020/12/19 03:38:19;;;;;;;26.27;14.82;;;5.60;99.90;;;;;;5012798;28;20147;-79
2020/12/19 03:40:50;;;;;;;25.25;15.13;;;5.60;99.90;;;;;;5015004;28;20029;-78
2020/12/19 03:43:18;;;;;;;26.38;16.55;;;5.60;99.90;;;;;;5015669;28;20256;-78
2020/12/19 03:45:45;;;;;;;24.33;15.73;;;5.60;99.90;;;;;;5016394;28;20098;-78
2020/12/19 03:48:11;;;;;;;24.05;14.93;;;5.60;99.90;;;;;;5015763;28;20052;-79
2020/12/19 03:50:39;;;;;;;24.80;14.95;;;5.70;99.90;;;;;;5029177;28;20644;-78
2020/12/19 03:53:09;;;;;;;23.77;15.00;;;5.60;99.90;;;;;;5012479;28;20128;-78
2020/12/19 03:55:37;;;;;;;22.38;13.73;;;5.60;99.90;;;;;;5046735;28;20033;-78
2020/12/19 03:58:05;;;;;;;21.85;14.20;;;5.70;99.90;;;;;;5015257;28;20448;-78
2020/12/19 04:00:31;;;;;;;21.85;14.38;;;5.70;99.90;;;;;;5013721;28;20079;-78
2020/12/19 04:02:59;;;;;;;22.10;13.60;;;5.70;99.90;;;;;;5014509;28;20049;-78
2020/12/19 04:05:27;;;;;;;21.80;13.52;;;5.70;99.90;;;;;;5015048;28;20026;-79
2020/12/19 04:07:52;;;;;;;21.42;13.75;;;5.80;99.90;;;;;;5011762;28;20675;-78
2020/12/19 04:10:22;;;;;;;20.90;12.90;;;5.80;99.90;;;;;;5015870;28;20099;-79
2020/12/19 04:12:48;;;;;;;20.55;13.35;;;5.70;99.90;;;;;;5014087;28;20026;-78
2020/12/19 04:15:23;;;;;;;24.98;15.13;;;5.80;99.90;;;;;;5028764;28;20107;-78
2020/12/19 04:17:51;;;;;;;25.15;14.63;;;5.80;99.90;;;;;;5045108;28;20168;-78
2020/12/19 04:20:20;;;;;;;27.60;15.13;;;5.80;99.90;;;;;;5019601;28;20027;-78
2020/12/19 04:22:48;;;;;;;25.85;14.85;;;5.80;99.90;;;;;;5027610;28;20489;-78
2020/12/19 04:25:16;;;;;;;30.73;16.17;;;5.70;99.90;;;;;;5047335;28;20111;-79
2020/12/19 04:27:44;;;;;;;25.42;14.73;;;5.80;99.90;;;;;;5014323;28;20026;-78
2020/12/19 04:30:10;;;;;;;28.13;15.90;;;5.80;99.90;;;;;;5015178;28;20067;-78
2020/12/19 04:32:35;;;;;;;29.58;16.65;;;5.80;99.90;;;;;;5011671;28;20660;-79
2020/12/19 04:35:02;;;;;;;27.33;15.60;;;5.80;99.90;;;;;;5014682;28;20087;-78
2020/12/19 04:37:27;;;;;;;30.05;15.93;;;5.80;99.90;;;;;;5015846;28;20148;-78
2020/12/19 04:39:53;;;;;;;25.52;14.68;;;5.90;99.90;;;;;;5046599;28;20883;-79
2020/12/19 04:42:24;;;;;;;26.48;15.63;;;5.80;99.90;;;;;;5011507;28;20033;-79
2020/12/19 04:44:50;;;;;;;26.90;15.57;;;5.90;99.90;;;;;;5012254;28;20392;-79
2020/12/19 04:47:18;;;;;;;21.65;14.13;;;5.90;99.90;;;;;;5013038;28;20052;-79
2020/12/19 04:49:44;;;;;;;23.88;13.35;;;5.90;99.90;;;;;;5015840;28;20510;-78
2020/12/19 04:52:10;;;;;;;21.58;13.45;;;5.90;99.90;;;;;;5012448;28;20113;-79
2020/12/19 04:54:36;;;;;;;25.55;15.35;;;5.90;99.90;;;;;;5044899;28;20092;-78
2020/12/19 04:57:02;;;;;;;38.88;18.15;;;5.90;99.90;;;;;;5046541;28;20037;-79
2020/12/19 04:59:29;;;;;;;25.80;15.40;;;5.90;99.90;;;;;;5012375;28;20100;-79
2020/12/19 05:02:00;;;;;;;26.55;14.95;;;5.80;99.90;;;;;;5013043;28;20041;-79
2020/12/19 05:04:26;;;;;;;25.38;14.90;;;5.80;99.90;;;;;;5012769;28;20095;-79
2020/12/19 05:06:53;;;;;;;23.98;14.35;;;5.90;99.90;;;;;;5010713;28;20045;-79
2020/12/19 05:09:18;;;;;;;23.88;14.73;;;5.90;99.90;;;;;;5012768;28;20041;-78
2020/12/19 05:11:44;;;;;;;27.90;15.82;;;5.90;99.90;;;;;;5030728;28;20026;-79
2020/12/19 05:14:10;;;;;;;25.08;15.77;;;5.90;99.90;;;;;;5009411;28;20450;-78
2020/12/19 05:16:38;;;;;;;30.98;17.58;;;5.90;99.90;;;;;;5014247;28;20044;-78
2020/12/19 05:19:14;;;;;;;23.77;15.70;;;5.90;99.90;;;;;;5013003;28;20125;-78
2020/12/19 05:21:46;;;;;;;23.45;13.93;;;6.00;99.90;;;;;;5038078;28;20469;-79
2020/12/19 05:24:15;;;;;;;25.77;15.93;;;5.90;99.90;;;;;;5005583;28;20025;-78
2020/12/19 05:26:46;;;;;;;23.58;15.43;;;5.90;99.90;;;;;;5021396;28;20380;-78
2020/12/19 05:29:14;;;;;;;24.45;14.80;;;5.90;99.90;;;;;;5011317;28;20025;-78
2020/12/19 05:31:39;;;;;;;27.25;15.90;;;5.90;99.90;;;;;;5023334;28;20037;-78
2020/12/19 05:34:05;;;;;;;27.60;14.98;;;5.90;99.90;;;;;;5024021;28;20041;-78
2020/12/19 05:36:33;;;;;;;22.70;13.82;;;5.90;99.90;;;;;;5013632;28;20087;-79
2020/12/19 05:39:10;;;;;;;19.98;12.93;;;5.90;99.90;;;;;;4995406;28;20040;-78
2020/12/19 05:41:39;;;;;;;16.88;11.52;;;5.90;99.90;;;;;;5014991;28;20632;-79
2020/12/19 05:44:07;;;;;;;23.88;14.32;;;5.90;99.90;;;;;;5014520;28;20553;-79
2020/12/19 05:46:40;;;;;;;21.17;13.30;;;5.90;99.90;;;;;;5014092;28;20064;-79
2020/12/19 05:49:07;;;;;;;22.95;14.52;;;5.90;99.90;;;;;;5014128;28;20025;-79
2020/12/19 05:51:33;;;;;;;22.45;13.95;;;5.80;99.90;;;;;;5014406;28;20037;-78
2020/12/19 05:54:06;;;;;;;22.90;14.00;;;5.80;99.90;;;;;;5014246;28;20040;-79
2020/12/19 05:56:45;;;;;;;22.10;14.18;;;5.90;99.90;;;;;;5015896;28;20033;-79
2020/12/19 05:59:20;;;;;;;20.25;12.88;;;5.80;99.90;;;;;;5017603;28;20029;-78
2020/12/19 06:01:47;;;;;;;19.05;12.90;;;5.80;99.90;;;;;;5014989;28;20088;-78
2020/12/19 06:04:15;;;;;;;23.00;13.63;;;5.80;99.90;;;;;;5049783;28;20049;-78
2020/12/19 06:06:45;;;;;;;22.00;14.02;;;5.80;99.90;;;;;;5013748;28;20036;-78
2020/12/19 06:09:18;;;;;;;22.90;14.40;;;5.80;99.90;;;;;;5030397;28;20041;-78
2020/12/19 06:11:54;;;;;;;22.13;13.45;;;5.80;99.90;;;;;;5030940;28;20029;-79
2020/12/19 06:14:21;;;;;;;21.23;13.20;;;5.80;99.90;;;;;;5018187;28;20552;-78
2020/12/19 06:16:50;;;;;;;20.08;12.90;;;5.70;99.90;;;;;;5031297;28;20470;-78
2020/12/19 06:19:23;;;;;;;20.67;13.20;;;5.80;99.90;;;;;;5014379;28;21918;-78
2020/12/19 06:21:55;;;;;;;19.83;12.38;;;5.80;99.90;;;;;;5017854;28;20025;-78
2020/12/19 06:24:46;;;;;;;19.70;12.60;;;5.70;99.90;;;;;;5031321;28;20033;-79
2020/12/19 06:27:23;;;;;;;19.25;12.07;;;5.70;99.90;;;;;;5013324;28;20037;-78
2020/12/19 06:29:54;;;;;;;22.00;13.07;;;5.70;99.90;;;;;;5017116;28;20037;-79
2020/12/19 06:32:21;;;;;;;22.67;13.85;;;5.70;99.90;;;;;;5017432;28;20026;-79
2020/12/19 06:35:11;;;;;;;22.10;13.25;;;5.60;99.90;;;;;;5016400;28;20048;-78
2020/12/19 06:37:42;;;;;;;21.48;13.15;;;5.70;99.90;;;;;;5016285;28;20117;-79
2020/12/19 06:40:20;;;;;;;22.95;13.15;;;5.60;99.90;;;;;;5013791;28;20092;-78
2020/12/19 06:42:49;;;;;;;23.65;14.52;;;5.60;99.90;;;;;;5022012;28;20029;-78
2020/12/19 06:45:30;;;;;;;21.25;13.10;;;5.60;99.90;;;;;;5013299;28;20045;-79
2020/12/19 06:48:00;;;;;;;18.52;12.57;;;5.60;99.90;;;;;;5048558;28;20041;-78
2020/12/19 06:51:04;;;;;;;19.55;12.07;;;5.50;99.90;;;;;;5018743;28;20030;-78
2020/12/19 06:53:33;;;;;;;21.38;13.40;;;5.50;99.90;;;;;;5017396;28;20053;-78
2020/12/19 06:56:01;;;;;;;20.85;12.80;;;5.40;99.90;;;;;;5015923;28;20076;-78
2020/12/19 06:58:31;;;;;;;23.00;14.05;;;5.40;99.90;;;;;;5018902;28;20043;-78
2020/12/19 07:01:02;;;;;;;21.65;12.88;;;5.30;99.90;;;;;;5016266;28;20025;-78
2020/12/19 07:03:43;;;;;;;22.95;13.18;;;5.30;99.90;;;;;;5047466;28;20072;-78
2020/12/19 07:06:17;;;;;;;21.70;12.38;;;5.30;99.90;;;;;;5016775;28;20056;-78
2020/12/19 07:08:46;;;;;;;20.35;13.00;;;5.20;99.90;;;;;;5016954;28;20029;-78
2020/12/19 07:11:34;;;;;;;20.55;12.57;;;5.20;99.90;;;;;;5046092;28;20498;-78
2020/12/19 07:14:00;;;;;;;30.42;15.45;;;5.10;99.90;;;;;;5015587;28;20639;-79
2020/12/19 07:16:47;;;;;;;22.88;14.95;;;5.10;99.90;;;;;;5017278;28;20041;-78
2020/12/19 07:19:26;;;;;;;24.05;14.00;;;5.00;99.90;;;;;;5013044;28;20030;-78
2020/12/19 07:21:53;;;;;;;23.23;13.73;;;5.00;99.90;;;;;;5013544;28;20403;-78
2020/12/19 07:24:21;;;;;;;24.27;13.75;;;5.00;99.90;;;;;;4997607;28;20961;-80
2020/12/19 07:26:47;;;;;;;23.83;15.30;;;5.00;99.90;;;;;;4996335;28;20061;-78
2020/12/19 07:29:19;;;;;;;26.35;15.02;;;4.90;99.90;;;;;;5030135;28;20053;-78
2020/12/19 07:31:49;;;;;;;24.67;14.95;;;4.90;99.90;;;;;;5048139;28;20025;-78
2020/12/19 07:34:17;;;;;;;21.88;13.30;;;4.80;99.90;;;;;;5015650;28;20045;-78
2020/12/19 07:36:46;;;;;;;21.05;12.88;;;4.80;99.90;;;;;;4998414;28;20490;-78
2020/12/19 07:39:17;;;;;;;26.10;14.43;;;4.70;99.90;;;;;;5015465;28;20076;-78
2020/12/19 07:41:43;;;;;;;28.85;15.23;;;4.70;99.90;;;;;;5020449;28;20029;-78
2020/12/19 07:44:18;;;;;;;26.23;15.30;;;4.70;99.90;;;;;;5022905;28;20034;-78
2020/12/19 07:46:56;;;;;;;28.83;14.70;;;4.60;99.90;;;;;;5048844;28;20090;-78
2020/12/19 07:49:26;;;;;;;20.90;12.60;;;4.60;99.90;;;;;;5001247;28;20124;-79
2020/12/19 07:52:21;;;;;;;25.90;14.05;;;4.50;99.90;;;;;;5021946;28;20028;-78
2020/12/19 07:55:04;;;;;;;25.48;14.30;;;4.50;99.90;;;;;;5025417;28;20021;-78
2020/12/19 07:57:31;;;;;;;23.15;13.48;;;4.50;99.90;;;;;;5040936;28;20029;-78
2020/12/19 08:00:03;;;;;;;24.50;14.30;;;4.40;99.90;;;;;;5031804;28;20030;-78
2020/12/19 08:02:31;;;;;;;24.02;14.30;;;4.40;99.90;;;;;;5045835;28;20104;-77
2020/12/19 08:05:00;;;;;;;25.45;15.65;;;4.40;99.90;;;;;;5014686;28;20041;-78
2020/12/19 08:07:29;;;;;;;23.58;14.48;;;4.40;99.90;;;;;;5015546;28;20043;-78
2020/12/19 08:10:10;;;;;;;23.63;14.27;;;4.40;99.90;;;;;;5011554;28;20071;-78
2020/12/19 08:12:41;;;;;;;21.27;14.00;;;4.40;99.90;;;;;;5014410;28;20033;-77
2020/12/19 08:15:09;;;;;;;21.55;13.63;;;4.40;99.90;;;;;;5002220;28;20033;-77
2020/12/19 08:17:54;;;;;;;22.25;12.85;;;4.40;99.90;;;;;;4999462;28;20030;-77
2020/12/19 08:20:23;;;;;;;23.25;14.85;;;4.40;99.90;;;;;;4997646;28;20068;-77
2020/12/19 08:22:49;;;;;;;22.98;13.65;;;4.40;99.90;;;;;;5012296;28;20124;-79
2020/12/19 08:25:15;;;;;;;23.65;14.15;;;4.30;99.90;;;;;;5011733;28;20076;-78
2020/12/19 08:27:44;;;;;;;24.63;14.75;;;4.30;99.90;;;;;;5045620;28;20044;-78
2020/12/19 08:30:11;;;;;;;23.23;14.20;;;4.30;99.90;;;;;;5012795;28;20021;-79
2020/12/19 08:32:44;;;;;;;25.33;15.85;;;4.30;99.90;;;;;;5016214;28;20041;-78
2020/12/19 08:35:10;;;;;;;24.48;15.95;;;4.30;99.90;;;;;;5030215;28;20030;-78
2020/12/19 08:37:36;;;;;;;22.90;14.23;;;4.30;99.90;;;;;;5010485;28;20923;-78
2020/12/19 08:40:14;;;;;;;23.20;14.68;;;4.30;99.90;;;;;;5045613;28;20045;-78
2020/12/19 08:42:43;;;;;;;22.80;13.85;;;4.30;99.90;;;;;;5010804;28;20030;-78
2020/12/19 08:45:28;;;;;;;23.02;14.57;;;4.30;99.90;;;;;;5004698;28;20057;-78
2020/12/19 08:48:01;;;;;;;23.13;13.85;;;4.40;99.90;;;;;;5023089;28;20079;-78
2020/12/19 08:50:31;;;;;;;22.35;14.13;;;4.40;99.90;;;;;;5015429;28;20470;-78
2020/12/19 08:53:19;;;;;;;27.60;17.15;;;4.40;99.90;;;;;;5018969;28;20413;-78
2020/12/19 08:55:47;;;;;;;25.80;16.52;;;4.50;99.90;;;;;;5013623;28;20091;-78
2020/12/19 08:58:26;;;;;;;26.98;15.52;;;4.50;99.90;;;;;;4994415;28;20059;-78
2020/12/19 09:00:53;;;;;;;26.25;16.30;;;4.60;99.90;;;;;;5013074;28;20133;-78
2020/12/19 09:03:32;;;;;;;25.67;16.38;;;4.60;99.90;;;;;;5015006;28;20049;-78
2020/12/19 09:06:10;;;;;;;22.77;15.13;;;4.70;99.90;;;;;;5013280;28;20103;-78
2020/12/19 09:08:35;;;;;;;28.33;16.35;;;4.70;99.90;;;;;;5012719;28;20033;-78
2020/12/19 09:11:02;;;;;;;27.38;16.05;;;4.70;99.90;;;;;;5027073;28;20036;-78
2020/12/19 09:13:27;;;;;;;23.58;14.77;;;4.80;99.90;;;;;;4994888;28;20359;-78
2020/12/19 09:15:57;;;;;;;27.23;16.73;;;4.80;99.90;;;;;;5013479;28;20048;-78
2020/12/19 09:18:33;;;;;;;29.15;17.58;;;4.80;99.90;;;;;;5015778;28;20034;-78
2020/12/19 09:20:59;;;;;;;27.42;17.33;;;4.90;99.90;;;;;;5010945;28;20037;-78
2020/12/19 09:23:28;;;;;;;26.00;16.38;;;4.90;99.90;;;;;;5012247;28;20044;-78
2020/12/19 09:25:55;;;;;;;27.90;17.02;;;4.90;99.90;;;;;;5039719;28;20029;-78
2020/12/19 09:28:26;;;;;;;31.00;19.55;;;4.90;99.90;;;;;;5022242;28;20097;-78
2020/12/19 09:30:54;;;;;;;28.98;16.40;;;4.90;99.90;;;;;;5013307;28;20029;-78
2020/12/19 09:33:22;;;;;;;25.30;16.40;;;4.90;99.90;;;;;;5017992;28;20103;-78
2020/12/19 09:35:51;;;;;;;34.72;20.25;;;5.00;99.90;;;;;;5038859;28;20033;-78
2020/12/19 09:38:17;;;;;;;34.13;19.70;;;5.00;99.90;;;;;;5025223;28;20026;-78
2020/12/19 09:40:43;;;;;;;28.70;17.17;;;5.00;99.90;;;;;;5025278;28;20108;-78
2020/12/19 09:43:11;;;;;;;31.17;18.60;;;5.00;99.90;;;;;;5019012;28;20122;-78
2020/12/19 09:45:37;;;;;;;35.58;19.70;;;5.10;99.90;;;;;;5013526;28;20037;-78
2020/12/19 09:48:08;;;;;;;28.50;17.17;;;5.10;99.90;;;;;;5020556;28;20026;-78
2020/12/19 09:50:38;;;;;;;31.25;18.38;;;5.10;99.90;;;;;;5025581;28;20064;-78
2020/12/19 09:53:04;;;;;;;28.33;17.42;;;5.10;99.90;;;;;;5038409;28;20651;-78
2020/12/19 09:55:31;;;;;;;29.63;19.05;;;5.10;99.90;;;;;;5025108;28;20033;-77
2020/12/19 09:57:57;;;;;;;26.65;17.23;;;5.10;99.90;;;;;;5057061;28;20076;-78
2020/12/19 10:00:25;;;;;;;27.73;16.33;;;5.10;99.90;;;;;;5022844;28;20029;-79
2020/12/19 10:02:53;;;;;;;33.58;19.08;;;5.10;99.90;;;;;;5024535;28;20125;-79
2020/12/19 10:05:22;;;;;;;29.88;17.48;;;5.10;99.90;;;;;;5024808;28;20498;-78
2020/12/19 10:07:49;;;;;;;27.67;16.73;;;5.10;99.90;;;;;;5055881;28;20030;-78
2020/12/19 10:10:17;;;;;;;39.60;20.67;;;5.10;99.90;;;;;;5024350;28;20125;-78
2020/12/19 10:12:43;;;;;;;38.58;21.15;;;5.20;99.90;;;;;;5025025;28;20036;-78
2020/12/19 10:15:10;;;;;;;40.13;21.08;;;5.20;99.90;;;;;;5024732;28;20026;-78
2020/12/19 10:17:43;;;;;;;34.03;19.45;;;5.20;99.90;;;;;;5023319;28;20026;-77
2020/12/19 10:20:12;;;;;;;34.92;19.85;;;5.20;99.90;;;;;;5023056;28;20120;-77
2020/12/19 10:22:40;;;;;;;35.85;20.45;;;5.30;99.90;;;;;;5024407;28;20091;-77
2020/12/19 10:25:08;;;;;;;35.75;19.77;;;5.30;99.90;;;;;;5020114;28;20085;-78
2020/12/19 10:27:38;;;;;;;37.40;19.42;;;5.30;99.90;;;;;;5024457;28;20033;-78
2020/12/19 10:30:08;;;;;;;36.80;19.98;;;5.30;99.90;;;;;;5056758;28;20044;-78
2020/12/19 10:32:36;;;;;;;42.05;22.90;;;5.40;99.90;;;;;;5023925;28;20041;-78
2020/12/19 10:35:06;;;;;;;46.03;22.65;;;5.40;99.90;;;;;;5023336;28;20048;-78
2020/12/19 10:37:33;;;;;;;46.72;24.05;;;5.40;99.90;;;;;;5023135;28;20202;-78
2020/12/19 10:40:05;;;;;;;33.88;20.60;;;5.50;99.90;;;;;;5023892;28;20510;-78
2020/12/19 10:42:30;;;;;;;33.25;18.67;;;5.50;99.90;;;;;;5027953;28;20064;-78
2020/12/19 10:44:58;;;;;;;32.05;19.17;;;5.60;99.90;;;;;;5023500;28;20418;-78
2020/12/19 10:47:24;;;;;;;37.00;20.08;;;5.60;99.90;;;;;;5026421;28;20124;-79
2020/12/19 10:49:54;;;;;;;38.97;20.92;;;5.60;99.90;;;;;;5025354;28;20105;-78
2020/12/19 10:52:20;;;;;;;31.25;19.58;;;5.60;99.90;;;;;;5028823;28;20034;-79
2020/12/19 10:54:45;;;;;;;35.55;20.98;;;5.70;99.90;;;;;;5026805;28;20046;-79
2020/12/19 10:57:11;;;;;;;34.95;22.17;;;5.70;99.90;;;;;;5026890;28;20104;-79
2020/12/19 10:59:37;;;;;;;29.13;18.98;;;5.70;99.90;;;;;;5026574;28;20060;-79
2020/12/19 11:02:08;;;;;;;35.90;22.38;;;5.70;99.90;;;;;;5024217;28;20504;-78
2020/12/19 11:04:36;;;;;;;41.15;23.27;;;5.80;99.90;;;;;;5056834;28;20632;-78
2020/12/19 11:07:02;;;;;;;35.83;22.50;;;5.80;99.90;;;;;;5058772;28;20054;-78
2020/12/19 11:09:28;;;;;;;29.23;20.65;;;5.80;99.90;;;;;;5040636;28;20067;-78
2020/12/19 11:11:56;;;;;;;36.28;22.17;;;5.80;99.90;;;;;;5024933;28;20029;-78
2020/12/19 11:14:25;;;;;;;30.25;21.00;;;5.80;99.90;;;;;;5025138;28;20444;-78
2020/12/19 11:16:55;;;;;;;31.17;19.77;;;5.80;99.90;;;;;;5057163;28;20026;-78
2020/12/19 11:19:27;;;;;;;29.17;19.92;;;5.90;99.90;;;;;;5025642;28;20028;-78
2020/12/19 11:21:58;;;;;;;34.55;22.25;;;5.90;99.90;;;;;;5026717;28;20041;-78
2020/12/19 11:24:28;;;;;;;31.23;20.35;;;5.90;99.90;;;;;;5043206;28;20032;-79
2020/12/19 11:26:54;;;;;;;36.53;23.17;;;5.90;99.90;;;;;;5028099;28;20029;-78
2020/12/19 11:29:22;;;;;;;35.03;21.05;;;5.90;99.90;;;;;;5041652;28;20025;-78
2020/12/19 11:31:48;;;;;;;35.20;21.48;;;5.90;99.90;;;;;;5027639;28;20026;-78
2020/12/19 11:34:16;;;;;;;35.20;21.50;;;5.90;99.90;;;;;;5024061;28;20041;-78
2020/12/19 11:36:42;;;;;;;33.08;21.35;;;5.90;99.90;;;;;;5056216;28;20083;-78
2020/12/19 11:39:09;;;;;;;30.50;20.20;;;6.00;99.90;;;;;;5024625;28;20593;-78
2020/12/19 11:41:34;;;;;;;34.72;21.13;;;6.00;99.90;;;;;;5040991;28;20021;-78
2020/12/19 11:44:00;;;;;;;39.25;23.70;;;6.00;99.90;;;;;;5027687;28;20026;-78
2020/12/19 11:46:28;;;;;;;41.40;24.25;;;6.00;99.90;;;;;;5025224;28;20018;-79
2020/12/19 11:48:54;;;;;;;37.70;23.67;;;6.00;99.90;;;;;;5027060;28;20025;-79
2020/12/19 11:51:32;;;;;;;36.35;23.02;;;6.00;99.90;;;;;;5022331;28;20082;-79
2020/12/19 11:53:58;;;;;;;32.22;20.92;;;6.10;99.90;;;;;;5058755;28;20458;-78
2020/12/19 11:56:24;;;;;;;36.17;22.65;;;6.00;99.90;;;;;;5023689;28;20037;-78
2020/12/19 11:58:50;;;;;;;33.25;21.77;;;6.10;99.90;;;;;;5025883;28;20021;-78
2020/12/19 12:01:18;;;;;;;31.35;20.75;;;6.10;99.90;;;;;;5026647;28;20036;-78
2020/12/19 12:03:46;;;;;;;37.25;23.58;;;6.10;99.90;;;;;;5026231;28;20571;-79
2020/12/19 12:06:16;;;;;;;30.90;19.70;;;6.20;99.90;;;;;;5025846;28;20541;-78
2020/12/19 12:08:42;;;;;;;37.58;22.98;;;6.20;99.90;;;;;;5026729;28;20037;-78
2020/12/19 12:11:10;;;;;;;37.78;22.55;;;6.20;99.90;;;;;;5058321;28;20029;-79
2020/12/19 12:13:36;;;;;;;40.40;24.17;;;6.30;99.90;;;;;;5024619;28;20037;-79
2020/12/19 12:16:01;;;;;;;34.45;21.85;;;6.30;99.90;;;;;;5023306;28;20077;-78
2020/12/19 12:18:27;;;;;;;36.90;22.90;;;6.30;99.90;;;;;;5024490;28;20103;-78
2020/12/19 12:20:55;;;;;;;30.35;19.60;;;6.40;99.90;;;;;;5057553;28;20036;-78
2020/12/19 12:23:23;;;;;;;30.50;18.65;;;6.40;99.90;;;;;;5025094;28;20056;-79
2020/12/19 12:25:49;;;;;;;35.10;21.23;;;6.40;99.90;;;;;;5023293;28;20037;-79
2020/12/19 12:28:17;;;;;;;28.83;19.27;;;6.40;99.90;;;;;;5024196;28;20026;-79
2020/12/19 12:30:44;;;;;;;26.80;18.58;;;6.50;99.90;;;;;;5041751;28;20018;-79
2020/12/19 12:33:15;;;;;;;38.58;22.48;;;6.50;99.90;;;;;;5025794;28;20029;-79
2020/12/19 12:35:45;;;;;;;29.15;18.20;;;6.50;99.90;;;;;;5021162;28;20453;-79
2020/12/19 12:38:13;;;;;;;30.00;20.17;;;6.50;99.90;;;;;;5024881;28;20021;-79
2020/12/19 12:40:39;;;;;;;26.48;18.42;;;6.50;99.90;;;;;;5020360;28;20029;-79
2020/12/19 12:43:04;;;;;;;27.33;17.73;;;6.50;99.90;;;;;;5023901;28;20025;-79
2020/12/19 12:45:30;;;;;;;27.02;18.55;;;6.50;99.90;;;;;;5025103;28;20036;-79